Time;durP1;ratioP1;P1;durP2;ratioP2;P2;SDS_P1;SDS_P2;PMS_P1;PMS_P2;Temp;Humidity;BMP_temperature;BMP_pressure;BME280_temperature;BME280_humidity;BME280_pressure;Samples;Min_cycle;Max_cycle;Signal;HPM_P1;HPM_P2
2023/08/17 00:02:13;;;;;;;39.27;37.57;;;;;;;;;;5027131;28;20806;-41
2023/08/17 00:04:42;;;;;;;40.63;38.67;;;;;;;;;;5032424;28;20545;-41
2023/08/17 00:07:09;;;;;;;38.30;36.00;;;;;;;;;;5033331;28;20484;-40
2023/08/17 00:09:37;;;;;;;37.87;36.40;;;;;;;;;;5032079;28;20439;-42
2023/08/17 00:12:04;;;;;;;39.73;38.00;;;;;;;;;;5032673;28;20977;-41
2023/08/17 00:14:33;;;;;;;39.27;37.53;;;;;;;;;;5032686;28;20467;-41
2023/08/17 00:17:00;;;;;;;40.03;37.97;;;;;;;;;;5029781;28;21090;-40
2023/08/17 00:19:27;;;;;;;42.20;39.90;;;;;;;;;;5032982;28;20498;-41
2023/08/17 00:21:57;;;;;;;40.13;38.43;;;;;;;;;;5033498;28;20436;-44
2023/08/17 00:24:24;;;;;;;38.60;36.70;;;;;;;;;;5033008;28;20547;-41
2023/08/17 00:26:52;;;;;;;41.43;39.93;;;;;;;;;;5031081;28;20451;-42
2023/08/17 00:29:20;;;;;;;41.47;39.90;;;;;;;;;;5032931;28;20515;-40
2023/08/17 00:31:49;;;;;;;40.73;38.93;;;;;;;;;;5033227;28;20471;-41
2023/08/17 00:34:17;;;;;;;42.93;41.33;;;;;;;;;;5023421;28;21214;-42
2023/08/17 00:36:44;;;;;;;47.83;45.67;;;;;;;;;;5014029;28;20959;-42
2023/08/17 00:39:14;;;;;;;40.80;39.10;;;;;;;;;;5013282;28;20982;-41
2023/08/17 00:41:42;;;;;;;41.87;40.00;;;;;;;;;;5013418;28;20433;-39
2023/08/17 00:44:09;;;;;;;39.63;38.13;;;;;;;;;;5013087;28;20463;-41
2023/08/17 00:46:37;;;;;;;36.77;35.27;;;;;;;;;;5012186;28;20500;-39
2023/08/17 00:49:05;;;;;;;37.57;35.90;;;;;;;;;;5014267;28;20504;-41
2023/08/17 00:51:32;;;;;;;36.53;35.10;;;;;;;;;;5011851;28;20444;-41
2023/08/17 00:54:01;;;;;;;37.63;36.13;;;;;;;;;;5019840;28;20824;-41
2023/08/17 00:56:30;;;;;;;38.17;36.67;;;;;;;;;;5030854;28;20543;-41
2023/08/17 00:58:58;;;;;;;38.70;36.63;;;;;;;;;;5032517;28;20542;-41
2023/08/17 01:01:26;;;;;;;38.77;36.70;;;;;;;;;;5031429;28;20494;-42
2023/08/17 01:03:54;;;;;;;39.20;37.23;;;;;;;;;;5031834;28;20456;-43
2023/08/17 01:06:21;;;;;;;38.50;36.87;;;;;;;;;;5032829;28;20454;-42
2023/08/17 01:08:49;;;;;;;37.80;36.13;;;;;;;;;;5031333;28;20439;-41
2023/08/17 01:11:21;;;;;;;36.93;35.50;;;;;;;;;;5030894;28;20527;-40
2023/08/17 01:13:53;;;;;;;38.00;36.33;;;;;;;;;;5030085;28;20474;-41
2023/08/17 01:16:22;;;;;;;36.40;34.83;;;;;;;;;;5032626;28;20538;-41
2023/08/17 01:18:51;;;;;;;35.17;33.60;;;;;;;;;;5031504;28;20997;-40
2023/08/17 01:21:22;;;;;;;37.07;35.10;;;;;;;;;;5032638;28;20930;-42
2023/08/17 01:23:51;;;;;;;34.43;33.13;;;;;;;;;;5031147;28;20481;-41
2023/08/17 01:26:19;;;;;;;32.10;30.60;;;;;;;;;;5031780;28;20447;-41
2023/08/17 01:28:47;;;;;;;32.83;31.43;;;;;;;;;;5031914;28;20436;-41
2023/08/17 01:31:17;;;;;;;34.97;33.73;;;;;;;;;;5031125;28;20820;-40
2023/08/17 01:33:46;;;;;;;34.97;33.13;;;;;;;;;;5031098;28;20642;-42
2023/08/17 01:36:17;;;;;;;38.33;36.73;;;;;;;;;;5031769;28;20488;-41
2023/08/17 01:38:45;;;;;;;39.40;37.60;;;;;;;;;;5030228;28;20472;-39
2023/08/17 01:41:15;;;;;;;38.43;36.63;;;;;;;;;;5031066;28;20442;-42
2023/08/17 01:43:45;;;;;;;37.17;35.57;;;;;;;;;;5029526;28;20469;-41
2023/08/17 01:46:15;;;;;;;38.50;36.70;;;;;;;;;;5029740;28;20491;-41
2023/08/17 01:48:43;;;;;;;36.07;34.63;;;;;;;;;;5030730;28;20523;-40
2023/08/17 01:51:11;;;;;;;33.20;31.70;;;;;;;;;;5031470;28;20442;-41
2023/08/17 01:53:38;;;;;;;31.70;30.40;;;;;;;;;;5030108;28;20874;-41
2023/08/17 01:56:06;;;;;;;31.13;29.80;;;;;;;;;;5030463;28;20531;-40
2023/08/17 01:58:35;;;;;;;30.53;29.30;;;;;;;;;;5032065;28;20549;-41
2023/08/17 02:01:02;;;;;;;28.47;27.07;;;;;;;;;;5032629;28;20438;-42
2023/08/17 02:03:30;;;;;;;29.33;27.70;;;;;;;;;;5030794;28;20459;-41
2023/08/17 02:05:57;;;;;;;29.03;27.70;;;;;;;;;;5030488;28;20825;-39
2023/08/17 02:08:25;;;;;;;26.90;25.53;;;;;;;;;;5030957;28;20490;-39
2023/08/17 02:10:53;;;;;;;27.50;26.17;;;;;;;;;;5031723;28;20527;-43
2023/08/17 02:13:20;;;;;;;28.73;27.30;;;;;;;;;;5029861;28;20505;-41
2023/08/17 02:15:49;;;;;;;25.83;24.73;;;;;;;;;;5030459;28;20432;-42
2023/08/17 02:18:17;;;;;;;25.50;24.43;;;;;;;;;;5030523;28;20985;-41
2023/08/17 02:20:44;;;;;;;24.33;23.23;;;;;;;;;;5029512;28;20487;-42
2023/08/17 02:23:12;;;;;;;25.90;25.00;;;;;;;;;;5029204;28;20779;-41
2023/08/17 02:25:39;;;;;;;26.93;25.63;;;;;;;;;;5030319;28;20443;-41
2023/08/17 02:28:07;;;;;;;26.10;25.00;;;;;;;;;;5031892;28;20866;-41
2023/08/17 02:30:34;;;;;;;25.87;24.83;;;;;;;;;;5030310;28;20436;-41
2023/08/17 02:33:04;;;;;;;26.03;24.70;;;;;;;;;;5030608;28;20925;-41
2023/08/17 02:35:31;;;;;;;27.73;26.27;;;;;;;;;;5030737;28;20464;-42
2023/08/17 02:37:59;;;;;;;26.17;24.97;;;;;;;;;;5031808;28;20550;-41
2023/08/17 02:40:26;;;;;;;26.50;25.17;;;;;;;;;;5030510;28;20721;-44
2023/08/17 02:42:54;;;;;;;27.80;26.30;;;;;;;;;;5031529;28;20438;-40
2023/08/17 02:45:21;;;;;;;25.07;24.07;;;;;;;;;;5010916;28;20850;-41
2023/08/17 02:47:49;;;;;;;26.80;25.70;;;;;;;;;;5010500;28;20472;-40
2023/08/17 02:50:18;;;;;;;27.20;26.10;;;;;;;;;;5009825;28;20463;-41
2023/08/17 02:52:45;;;;;;;26.53;25.27;;;;;;;;;;5011360;28;20504;-41
2023/08/17 02:55:13;;;;;;;28.20;27.00;;;;;;;;;;5011090;28;20468;-43
2023/08/17 02:57:40;;;;;;;27.23;25.97;;;;;;;;;;5011651;28;20524;-44
2023/08/17 03:00:08;;;;;;;26.90;25.60;;;;;;;;;;5010780;28;20473;-41
2023/08/17 03:02:36;;;;;;;27.87;26.70;;;;;;;;;;5011211;28;21001;-43
2023/08/17 03:05:03;;;;;;;29.07;27.70;;;;;;;;;;5025772;28;20464;-45
2023/08/17 03:07:32;;;;;;;29.33;28.23;;;;;;;;;;5031025;28;20823;-41
2023/08/17 03:10:00;;;;;;;27.37;26.23;;;;;;;;;;5030979;28;20443;-40
2023/08/17 03:12:27;;;;;;;27.40;26.40;;;;;;;;;;5031218;28;20432;-41
2023/08/17 03:14:55;;;;;;;27.80;26.70;;;;;;;;;;5030769;28;20551;-41
2023/08/17 03:17:22;;;;;;;31.33;29.93;;;;;;;;;;5030542;28;20448;-41
2023/08/17 03:19:50;;;;;;;28.50;27.23;;;;;;;;;;5031354;28;20474;-41
2023/08/17 03:22:18;;;;;;;29.80;28.60;;;;;;;;;;5030938;28;20841;-40
2023/08/17 03:24:47;;;;;;;30.73;29.33;;;;;;;;;;5029738;28;20464;-44
2023/08/17 03:27:14;;;;;;;29.43;28.23;;;;;;;;;;5030741;28;20448;-40
2023/08/17 03:29:41;;;;;;;31.10;29.27;;;;;;;;;;5029286;28;20443;-41
2023/08/17 03:32:09;;;;;;;31.47;30.17;;;;;;;;;;5029138;28;20467;-40
2023/08/17 03:34:36;;;;;;;31.20;29.60;;;;;;;;;;5029134;28;20470;-42
2023/08/17 03:37:04;;;;;;;32.10;30.90;;;;;;;;;;5032047;28;20452;-43
2023/08/17 03:39:32;;;;;;;30.23;29.00;;;;;;;;;;5033031;28;20559;-41
2023/08/17 03:42:01;;;;;;;32.37;30.97;;;;;;;;;;5034021;28;20438;-42
2023/08/17 03:44:29;;;;;;;31.47;30.07;;;;;;;;;;5033028;28;20463;-41
2023/08/17 03:46:56;;;;;;;32.13;30.73;;;;;;;;;;5034307;28;20471;-41
2023/08/17 03:49:24;;;;;;;32.67;31.37;;;;;;;;;;5034160;28;20458;-41
2023/08/17 03:51:51;;;;;;;34.33;33.03;;;;;;;;;;5034286;28;20428;-40
2023/08/17 03:54:19;;;;;;;35.43;34.03;;;;;;;;;;5034143;28;20468;-41
2023/08/17 03:56:46;;;;;;;36.67;35.17;;;;;;;;;;5034061;28;20454;-41
2023/08/17 03:59:15;;;;;;;35.27;33.87;;;;;;;;;;5033962;28;20503;-41
2023/08/17 04:01:43;;;;;;;33.97;32.67;;;;;;;;;;5033686;28;20980;-40
2023/08/17 04:04:11;;;;;;;35.60;33.83;;;;;;;;;;5033801;28;20514;-41
2023/08/17 04:06:40;;;;;;;33.97;32.30;;;;;;;;;;5034374;28;20542;-45
2023/08/17 04:09:08;;;;;;;36.53;34.50;;;;;;;;;;5034350;28;20436;-42
2023/08/17 04:11:36;;;;;;;36.03;34.37;;;;;;;;;;5034007;28;20467;-41
2023/08/17 04:14:04;;;;;;;35.57;34.00;;;;;;;;;;5033536;28;20514;-41
2023/08/17 04:16:34;;;;;;;35.10;33.50;;;;;;;;;;5033885;28;20464;-42
2023/08/17 04:19:01;;;;;;;35.20;33.73;;;;;;;;;;5033534;28;20996;-40
2023/08/17 04:21:29;;;;;;;33.70;32.40;;;;;;;;;;5033090;28;20471;-44
2023/08/17 04:23:56;;;;;;;36.50;35.10;;;;;;;;;;5033148;28;20467;-40
2023/08/17 04:26:24;;;;;;;34.30;32.80;;;;;;;;;;5033512;28;20447;-42
2023/08/17 04:28:52;;;;;;;33.97;32.33;;;;;;;;;;5033733;28;20464;-40
2023/08/17 04:31:19;;;;;;;34.07;32.70;;;;;;;;;;5033139;28;20435;-44
2023/08/17 04:33:48;;;;;;;36.63;34.77;;;;;;;;;;5033165;28;20464;-42
2023/08/17 04:36:16;;;;;;;37.60;35.80;;;;;;;;;;5033804;28;20458;-41
2023/08/17 04:38:44;;;;;;;35.60;34.20;;;;;;;;;;5032811;28;20479;-45
2023/08/17 04:41:11;;;;;;;32.33;31.13;;;;;;;;;;5032701;28;20471;-41
2023/08/17 04:43:38;;;;;;;34.77;32.97;;;;;;;;;;5033328;28;21012;-40
2023/08/17 04:46:06;;;;;;;37.00;35.30;;;;;;;;;;5033284;28;20447;-42
2023/08/17 04:48:33;;;;;;;35.13;33.80;;;;;;;;;;5032831;28;20918;-40
2023/08/17 04:51:02;;;;;;;38.87;36.70;;;;;;;;;;5033582;28;20438;-42
2023/08/17 04:53:30;;;;;;;37.63;35.90;;;;;;;;;;5032104;28;21034;-41
2023/08/17 04:55:57;;;;;;;37.20;35.50;;;;;;;;;;5033322;28;20472;-40
2023/08/17 04:58:25;;;;;;;36.87;35.13;;;;;;;;;;5033717;28;20467;-40
2023/08/17 05:00:52;;;;;;;36.33;34.90;;;;;;;;;;5033211;28;20476;-43
2023/08/17 05:03:20;;;;;;;34.70;33.20;;;;;;;;;;5032539;28;20435;-42
2023/08/17 05:06:00;;;;;;;35.20;33.70;;;;;;;;;;5032812;28;20860;-43
2023/08/17 05:08:29;;;;;;;36.27;34.77;;;;;;;;;;5033138;28;20519;-40
2023/08/17 05:10:56;;;;;;;33.73;32.10;;;;;;;;;;5032608;28;20498;-41
2023/08/17 05:13:24;;;;;;;32.53;31.23;;;;;;;;;;5032638;28;20428;-42
2023/08/17 05:15:51;;;;;;;31.57;30.30;;;;;;;;;;5032165;28;20432;-44
2023/08/17 05:18:19;;;;;;;31.37;30.00;;;;;;;;;;5032277;28;20432;-40
2023/08/17 05:20:46;;;;;;;29.20;27.50;;;;;;;;;;5032808;28;20992;-42
2023/08/17 05:23:14;;;;;;;26.60;25.60;;;;;;;;;;5032362;28;20438;-40
2023/08/17 05:25:42;;;;;;;26.80;25.90;;;;;;;;;;5032640;28;20436;-45
2023/08/17 05:28:10;;;;;;;26.53;25.53;;;;;;;;;;5032978;28;20448;-42
2023/08/17 05:30:37;;;;;;;24.53;23.23;;;;;;;;;;5032955;28;20844;-44
2023/08/17 05:33:05;;;;;;;28.03;26.73;;;;;;;;;;5032302;28;20941;-40
2023/08/17 05:35:33;;;;;;;25.17;23.90;;;;;;;;;;5032438;28;20522;-41
2023/08/17 05:38:01;;;;;;;28.50;27.10;;;;;;;;;;5032421;28;20466;-43
2023/08/17 05:40:30;;;;;;;26.47;25.33;;;;;;;;;;5032778;28;20465;-41
2023/08/17 05:42:59;;;;;;;26.53;25.33;;;;;;;;;;5031606;28;20494;-42
2023/08/17 05:45:26;;;;;;;26.73;25.53;;;;;;;;;;5032340;28;20475;-42
2023/08/17 05:47:54;;;;;;;27.93;26.90;;;;;;;;;;5032369;28;20460;-41
2023/08/17 05:50:21;;;;;;;27.07;26.17;;;;;;;;;;5032823;28;20489;-44
2023/08/17 05:52:48;;;;;;;27.27;26.17;;;;;;;;;;5032488;28;20516;-41
2023/08/17 05:55:16;;;;;;;24.90;23.60;;;;;;;;;;5031799;28;20517;-41
2023/08/17 05:57:44;;;;;;;24.80;23.60;;;;;;;;;;5031965;28;20495;-40
2023/08/17 06:00:13;;;;;;;24.80;23.80;;;;;;;;;;5031050;28;20468;-41
2023/08/17 06:02:41;;;;;;;27.90;26.53;;;;;;;;;;5032075;28;20429;-41
2023/08/17 06:05:09;;;;;;;27.77;26.77;;;;;;;;;;5031655;28;20838;-41
2023/08/17 06:07:37;;;;;;;27.30;26.30;;;;;;;;;;5032131;28;20535;-44
2023/08/17 06:10:05;;;;;;;26.30;25.30;;;;;;;;;;5032169;28;20527;-41
2023/08/17 06:12:33;;;;;;;25.67;24.67;;;;;;;;;;5031885;28;20515;-40
2023/08/17 06:15:02;;;;;;;25.77;24.87;;;;;;;;;;5031814;28;20464;-47
2023/08/17 06:17:31;;;;;;;26.20;25.30;;;;;;;;;;5031750;28;20468;-41
2023/08/17 06:19:58;;;;;;;24.83;23.77;;;;;;;;;;5031968;28;20432;-40
2023/08/17 06:22:26;;;;;;;24.70;23.70;;;;;;;;;;5031426;28;20432;-42
2023/08/17 06:24:53;;;;;;;25.30;24.40;;;;;;;;;;5031233;28;20559;-41
2023/08/17 06:27:21;;;;;;;24.67;23.57;;;;;;;;;;5031510;28;20891;-41
2023/08/17 06:29:48;;;;;;;26.20;25.00;;;;;;;;;;5031593;28;20440;-40
2023/08/17 06:32:16;;;;;;;23.97;23.00;;;;;;;;;;5031396;28;20805;-40
2023/08/17 06:34:45;;;;;;;24.50;23.50;;;;;;;;;;5031252;28;20477;-45
2023/08/17 06:37:12;;;;;;;24.33;23.43;;;;;;;;;;5031577;28;20547;-42
2023/08/17 06:39:40;;;;;;;23.47;22.60;;;;;;;;;;5032119;28;20444;-41
2023/08/17 06:42:07;;;;;;;24.60;23.50;;;;;;;;;;5031607;28;20499;-40
2023/08/17 06:44:35;;;;;;;27.07;26.07;;;;;;;;;;5031164;28;20875;-40
2023/08/17 06:47:02;;;;;;;24.80;23.83;;;;;;;;;;5031174;28;20833;-40
2023/08/17 06:49:31;;;;;;;25.70;24.50;;;;;;;;;;5031432;28;20432;-41
2023/08/17 06:52:00;;;;;;;24.90;23.60;;;;;;;;;;5031435;28;20428;-44
2023/08/17 06:54:27;;;;;;;24.13;23.33;;;;;;;;;;5031013;28;20539;-42
2023/08/17 06:56:55;;;;;;;22.60;21.80;;;;;;;;;;5031339;28;20470;-40
2023/08/17 06:59:22;;;;;;;25.43;24.40;;;;;;;;;;5031411;28;20426;-42
2023/08/17 07:01:50;;;;;;;23.17;22.37;;;;;;;;;;5031196;28;20559;-41
2023/08/17 07:04:17;;;;;;;23.93;23.13;;;;;;;;;;5030638;28;21013;-40
2023/08/17 07:06:45;;;;;;;23.00;22.00;;;;;;;;;;5031065;28;20926;-43
2023/08/17 07:09:14;;;;;;;23.33;22.50;;;;;;;;;;5030977;28;21083;-44
2023/08/17 07:11:41;;;;;;;22.10;21.30;;;;;;;;;;5030868;28;20439;-40
2023/08/17 07:14:09;;;;;;;22.40;21.40;;;;;;;;;;5030883;28;20470;-41
2023/08/17 07:16:36;;;;;;;23.83;23.10;;;;;;;;;;5031197;28;20459;-40
2023/08/17 07:19:04;;;;;;;23.60;22.50;;;;;;;;;;5030763;28;20428;-40
2023/08/17 07:21:32;;;;;;;22.93;22.13;;;;;;;;;;5030719;28;20563;-41
2023/08/17 07:24:11;;;;;;;23.23;22.20;;;;;;;;;;5030761;28;20466;-43
2023/08/17 07:26:40;;;;;;;22.17;21.37;;;;;;;;;;5030965;28;20456;-43
2023/08/17 07:29:08;;;;;;;21.63;20.83;;;;;;;;;;5030705;28;20435;-41
2023/08/17 07:31:37;;;;;;;22.40;21.30;;;;;;;;;;5030982;28;20531;-42
2023/08/17 07:34:05;;;;;;;23.80;23.00;;;;;;;;;;5030165;28;20460;-44
2023/08/17 07:36:33;;;;;;;21.90;21.10;;;;;;;;;;5030578;28;20455;-46
2023/08/17 07:39:00;;;;;;;22.43;21.63;;;;;;;;;;5030839;28;21048;-42
2023/08/17 07:41:28;;;;;;;21.00;20.30;;;;;;;;;;5030650;28;20471;-43
2023/08/17 07:43:57;;;;;;;21.53;20.83;;;;;;;;;;5030362;28;20543;-42
2023/08/17 07:46:24;;;;;;;21.20;20.40;;;;;;;;;;5030608;28;20471;-42
2023/08/17 07:48:52;;;;;;;21.73;20.93;;;;;;;;;;5030805;28;20810;-43
2023/08/17 07:51:19;;;;;;;22.47;21.57;;;;;;;;;;5030751;28;20464;-40
2023/08/17 07:53:47;;;;;;;23.47;22.20;;;;;;;;;;5030427;28;20455;-43
2023/08/17 07:56:14;;;;;;;22.37;21.50;;;;;;;;;;5030387;28;20825;-44
2023/08/17 07:58:42;;;;;;;21.20;20.50;;;;;;;;;;5030762;28;20519;-40
2023/08/17 08:01:10;;;;;;;22.10;21.37;;;;;;;;;;5030230;28;20570;-41
2023/08/17 08:03:38;;;;;;;22.27;21.57;;;;;;;;;;5029827;28;20534;-43
2023/08/17 08:06:06;;;;;;;22.17;21.47;;;;;;;;;;5030569;28;20460;-40
2023/08/17 08:08:33;;;;;;;22.00;21.20;;;;;;;;;;5030809;28;20467;-41
2023/08/17 08:11:01;;;;;;;23.40;22.60;;;;;;;;;;5030462;28;20807;-40
2023/08/17 08:13:28;;;;;;;22.87;21.80;;;;;;;;;;5029724;28;20531;-41
2023/08/17 08:15:55;;;;;;;24.03;23.13;;;;;;;;;;5030474;28;20440;-41
2023/08/17 08:18:25;;;;;;;23.27;22.23;;;;;;;;;;5030569;28;20458;-43
2023/08/17 08:20:52;;;;;;;23.90;23.10;;;;;;;;;;5030589;28;20440;-40
2023/08/17 08:23:19;;;;;;;22.47;21.67;;;;;;;;;;5030030;28;20455;-40
2023/08/17 08:25:47;;;;;;;24.87;23.70;;;;;;;;;;5034349;28;20458;-40
2023/08/17 08:28:14;;;;;;;23.87;22.67;;;;;;;;;;5033838;28;20797;-41
2023/08/17 08:30:43;;;;;;;23.80;23.00;;;;;;;;;;5033956;28;20466;-40
2023/08/17 08:33:11;;;;;;;25.17;23.63;;;;;;;;;;5033421;28;20840;-44
2023/08/17 08:35:39;;;;;;;23.23;22.43;;;;;;;;;;5033999;28;20435;-42
2023/08/17 08:38:07;;;;;;;24.40;23.60;;;;;;;;;;5033877;28;20451;-40
2023/08/17 08:40:37;;;;;;;24.83;23.63;;;;;;;;;;5034124;28;20530;-40
2023/08/17 08:43:04;;;;;;;24.67;23.77;;;;;;;;;;5033344;28;20501;-44
2023/08/17 08:45:32;;;;;;;25.73;24.73;;;;;;;;;;5032674;28;20502;-43
2023/08/17 08:48:01;;;;;;;25.37;24.43;;;;;;;;;;5033433;28;20459;-40
2023/08/17 08:50:32;;;;;;;24.23;23.43;;;;;;;;;;5033700;28;20478;-41
2023/08/17 08:53:02;;;;;;;26.07;25.00;;;;;;;;;;5033440;28;20983;-41
2023/08/17 08:55:31;;;;;;;24.87;23.87;;;;;;;;;;5032906;28;20468;-40
2023/08/17 08:57:59;;;;;;;25.20;24.17;;;;;;;;;;5033846;28;20498;-41
2023/08/17 09:00:27;;;;;;;27.00;26.00;;;;;;;;;;5033610;28;20436;-42
2023/08/17 09:02:55;;;;;;;26.37;24.87;;;;;;;;;;5032968;28;20472;-42
2023/08/17 09:05:22;;;;;;;26.43;25.20;;;;;;;;;;5032914;28;20456;-43
2023/08/17 09:07:50;;;;;;;25.80;24.90;;;;;;;;;;5033277;28;20543;-42
2023/08/17 09:10:19;;;;;;;26.97;25.93;;;;;;;;;;5033621;28;20837;-43
2023/08/17 09:12:47;;;;;;;26.37;25.20;;;;;;;;;;5033347;28;20794;-40
2023/08/17 09:15:15;;;;;;;25.53;24.63;;;;;;;;;;5032800;28;20455;-42
2023/08/17 09:17:43;;;;;;;26.67;25.37;;;;;;;;;;5032909;28;20539;-43
2023/08/17 09:20:11;;;;;;;27.50;26.17;;;;;;;;;;5032886;28;20805;-43
2023/08/17 09:22:39;;;;;;;27.40;26.30;;;;;;;;;;5032582;28;20517;-42
2023/08/17 09:25:08;;;;;;;26.70;25.50;;;;;;;;;;5032334;28;20464;-41
2023/08/17 09:27:37;;;;;;;26.83;25.50;;;;;;;;;;5032971;28;20546;-40
2023/08/17 09:30:06;;;;;;;26.30;25.07;;;;;;;;;;5032951;28;20440;-46
2023/08/17 09:32:34;;;;;;;26.63;25.33;;;;;;;;;;5032559;28;20913;-40
2023/08/17 09:35:02;;;;;;;27.27;26.17;;;;;;;;;;5032246;28;20483;-40
2023/08/17 09:37:29;;;;;;;26.10;25.10;;;;;;;;;;5033113;28;20995;-43
2023/08/17 09:39:57;;;;;;;26.93;25.63;;;;;;;;;;5033011;28;20428;-40
2023/08/17 09:42:25;;;;;;;25.50;24.57;;;;;;;;;;5032526;28;20977;-42
2023/08/17 09:44:55;;;;;;;28.03;26.83;;;;;;;;;;5031866;28;20468;-43
2023/08/17 09:47:23;;;;;;;26.83;25.53;;;;;;;;;;5032017;28;20467;-42
2023/08/17 09:49:52;;;;;;;26.03;24.83;;;;;;;;;;5033055;28;20427;-41
2023/08/17 09:52:20;;;;;;;26.30;24.70;;;;;;;;;;5032986;28;20443;-44
2023/08/17 09:54:48;;;;;;;25.53;24.63;;;;;;;;;;5031964;28;20495;-45
2023/08/17 09:57:15;;;;;;;25.03;23.93;;;;;;;;;;5032015;28;20471;-42
2023/08/17 09:59:50;;;;;;;24.93;23.90;;;;;;;;;;5032127;28;20952;-43
2023/08/17 10:02:24;;;;;;;24.90;23.80;;;;;;;;;;5032052;28;20471;-41
2023/08/17 10:04:54;;;;;;;26.83;25.67;;;;;;;;;;5032166;28;20471;-47
2023/08/17 10:07:22;;;;;;;26.77;25.77;;;;;;;;;;5032508;28;20483;-40
2023/08/17 10:09:53;;;;;;;25.87;24.87;;;;;;;;;;5032043;28;20435;-43
2023/08/17 10:12:23;;;;;;;25.50;24.50;;;;;;;;;;5031889;28;20434;-42
2023/08/17 10:14:55;;;;;;;25.83;24.73;;;;;;;;;;5031349;28;20464;-42
2023/08/17 10:17:26;;;;;;;27.33;26.03;;;;;;;;;;5031955;28;20456;-41
2023/08/17 10:19:55;;;;;;;29.07;27.67;;;;;;;;;;5031496;28;20439;-42
2023/08/17 10:22:26;;;;;;;26.13;25.03;;;;;;;;;;5031922;28;20557;-42
2023/08/17 10:24:55;;;;;;;26.60;25.40;;;;;;;;;;5031414;28;20996;-40
2023/08/17 10:27:22;;;;;;;26.63;25.53;;;;;;;;;;5031525;28;20907;-43
2023/08/17 10:29:51;;;;;;;26.07;24.90;;;;;;;;;;5031956;28;20690;-42
2023/08/17 10:32:19;;;;;;;27.80;26.57;;;;;;;;;;5031424;28;20442;-40
2023/08/17 10:34:49;;;;;;;25.47;24.40;;;;;;;;;;5030893;28;20463;-45
2023/08/17 10:37:18;;;;;;;24.10;23.00;;;;;;;;;;5031498;28;20546;-40
2023/08/17 10:39:46;;;;;;;25.20;24.30;;;;;;;;;;5031881;28;20431;-42
2023/08/17 10:42:14;;;;;;;24.00;22.87;;;;;;;;;;5031115;28;20485;-43
2023/08/17 10:44:48;;;;;;;25.00;23.70;;;;;;;;;;5031325;28;20542;-45
2023/08/17 10:47:22;;;;;;;25.60;24.40;;;;;;;;;;5031231;28;20479;-41
2023/08/17 10:49:51;;;;;;;24.10;23.10;;;;;;;;;;5031428;28;20438;-40
2023/08/17 10:52:26;;;;;;;22.90;22.00;;;;;;;;;;5031395;28;20444;-42
2023/08/17 10:54:55;;;;;;;22.90;21.97;;;;;;;;;;5031022;28;20485;-40
2023/08/17 10:57:29;;;;;;;23.50;22.50;;;;;;;;;;5031443;28;20543;-40
2023/08/17 11:00:14;;;;;;;21.70;20.90;;;;;;;;;;5031378;28;20503;-41
2023/08/17 11:02:53;;;;;;;22.50;21.40;;;;;;;;;;5031106;28;20475;-43
2023/08/17 11:05:41;;;;;;;22.03;20.93;;;;;;;;;;5030722;28;20467;-43
2023/08/17 11:08:10;;;;;;;23.10;22.00;;;;;;;;;;5031048;28;20455;-40
2023/08/17 11:10:38;;;;;;;24.23;23.20;;;;;;;;;;5031035;28;20852;-42
2023/08/17 11:13:07;;;;;;;22.70;21.90;;;;;;;;;;5030971;28;20522;-44
2023/08/17 11:15:41;;;;;;;22.97;22.03;;;;;;;;;;5030581;28;20440;-41
2023/08/17 11:18:10;;;;;;;23.17;22.07;;;;;;;;;;5031337;28;20486;-41
2023/08/17 11:20:39;;;;;;;21.80;20.80;;;;;;;;;;5031350;28;20463;-40
2023/08/17 11:23:08;;;;;;;19.47;18.70;;;;;;;;;;5030693;28;20840;-40
2023/08/17 11:25:37;;;;;;;20.30;18.87;;;;;;;;;;5031099;28;20474;-43
2023/08/17 11:28:06;;;;;;;19.40;18.70;;;;;;;;;;5030908;28;20455;-40
2023/08/17 11:30:36;;;;;;;18.23;17.47;;;;;;;;;;5030845;28;20456;-40
2023/08/17 11:33:04;;;;;;;17.40;16.70;;;;;;;;;;5030607;28;20436;-40
2023/08/17 11:35:32;;;;;;;16.20;15.50;;;;;;;;;;5011455;28;20488;-44
2023/08/17 11:37:59;;;;;;;15.20;14.60;;;;;;;;;;5010954;28;20831;-42
2023/08/17 11:40:28;;;;;;;13.60;13.10;;;;;;;;;;5010870;28;20799;-40
2023/08/17 11:42:56;;;;;;;11.43;11.13;;;;;;;;;;5010588;28;20837;-40
2023/08/17 11:45:24;;;;;;;12.60;12.00;;;;;;;;;;5010807;28;20580;-41
2023/08/17 11:47:54;;;;;;;11.97;11.37;;;;;;;;;;5010936;28;20527;-43
2023/08/17 11:50:22;;;;;;;13.13;12.63;;;;;;;;;;5011437;28;20437;-43
2023/08/17 11:52:49;;;;;;;10.80;10.13;;;;;;;;;;5011015;28;20523;-43
2023/08/17 11:55:18;;;;;;;11.47;10.57;;;;;;;;;;5028105;28;20464;-45
2023/08/17 11:57:47;;;;;;;11.27;10.77;;;;;;;;;;5029972;28;20494;-42
2023/08/17 12:00:19;;;;;;;10.33;9.57;;;;;;;;;;5033726;28;20471;-43
2023/08/17 12:02:50;;;;;;;11.10;10.30;;;;;;;;;;5033195;28;20796;-42
2023/08/17 12:05:23;;;;;;;9.90;9.50;;;;;;;;;;5034198;28;21011;-41
2023/08/17 12:07:50;;;;;;;9.83;9.40;;;;;;;;;;5033900;28;20466;-40
2023/08/17 12:10:18;;;;;;;11.27;10.40;;;;;;;;;;5034355;28;20493;-40
2023/08/17 12:12:49;;;;;;;10.40;9.87;;;;;;;;;;5033587;28;20436;-40
2023/08/17 12:15:17;;;;;;;10.37;9.80;;;;;;;;;;5033842;28;20501;-44
2023/08/17 12:17:47;;;;;;;10.57;9.97;;;;;;;;;;5033717;28;20881;-46
2023/08/17 12:20:18;;;;;;;10.07;9.63;;;;;;;;;;5033471;28;20442;-40
2023/08/17 12:22:46;;;;;;;10.20;9.63;;;;;;;;;;5034134;28;20810;-41
2023/08/17 12:25:14;;;;;;;9.47;8.87;;;;;;;;;;5033940;28;20471;-42
2023/08/17 12:27:41;;;;;;;9.67;9.03;;;;;;;;;;5033991;28;20462;-41
2023/08/17 12:30:15;;;;;;;9.83;9.13;;;;;;;;;;5034445;28;21235;-43
2023/08/17 12:32:42;;;;;;;9.70;8.90;;;;;;;;;;5034291;28;20453;-40
2023/08/17 12:35:10;;;;;;;9.40;9.00;;;;;;;;;;5033570;28;20463;-41
2023/08/17 12:37:37;;;;;;;8.70;8.30;;;;;;;;;;5034526;28;20458;-44
2023/08/17 12:40:05;;;;;;;9.40;8.80;;;;;;;;;;5034054;28;20440;-40
2023/08/17 12:42:32;;;;;;;9.00;8.57;;;;;;;;;;5033820;28;20838;-41
2023/08/17 12:45:00;;;;;;;8.63;8.23;;;;;;;;;;5033155;28;20889;-43
2023/08/17 12:47:33;;;;;;;8.80;8.47;;;;;;;;;;5033645;28;20459;-41
2023/08/17 12:50:03;;;;;;;9.00;8.50;;;;;;;;;;5033613;28;21024;-41
2023/08/17 12:52:31;;;;;;;9.07;8.67;;;;;;;;;;5033623;28;20432;-41
2023/08/17 12:54:58;;;;;;;10.93;10.13;;;;;;;;;;5033212;28;21001;-40
2023/08/17 12:57:26;;;;;;;10.23;9.73;;;;;;;;;;5033607;28;20485;-42
2023/08/17 12:59:54;;;;;;;12.13;11.33;;;;;;;;;;5034297;28;20470;-44
2023/08/17 13:02:21;;;;;;;13.87;12.97;;;;;;;;;;5033592;28;20474;-45
2023/08/17 13:04:50;;;;;;;13.60;12.90;;;;;;;;;;5033177;28;20533;-41
2023/08/17 13:07:18;;;;;;;15.27;14.47;;;;;;;;;;5033361;28;21008;-41
2023/08/17 13:09:46;;;;;;;15.90;15.17;;;;;;;;;;5032698;28;20960;-41
2023/08/17 13:12:14;;;;;;;14.30;13.40;;;;;;;;;;5032850;28;20428;-42
2023/08/17 13:14:41;;;;;;;13.67;13.13;;;;;;;;;;5032850;28;20506;-40
2023/08/17 13:17:09;;;;;;;14.03;13.23;;;;;;;;;;5033262;28;20459;-43
2023/08/17 13:19:36;;;;;;;13.80;13.13;;;;;;;;;;5033243;28;20424;-41
2023/08/17 13:22:05;;;;;;;14.30;13.33;;;;;;;;;;5033074;28;20518;-43
2023/08/17 13:24:33;;;;;;;12.50;11.60;;;;;;;;;;5032724;28;20579;-48
2023/08/17 13:27:00;;;;;;;13.40;12.27;;;;;;;;;;5032835;28;20482;-40
2023/08/17 13:29:28;;;;;;;13.27;12.40;;;;;;;;;;5033405;28;20472;-42
2023/08/17 13:31:55;;;;;;;12.63;11.90;;;;;;;;;;5032608;28;20805;-40
2023/08/17 13:34:23;;;;;;;11.33;10.50;;;;;;;;;;5032723;28;20463;-40
2023/08/17 13:36:50;;;;;;;11.87;11.23;;;;;;;;;;5033063;28;20452;-41
2023/08/17 13:39:19;;;;;;;12.00;11.33;;;;;;;;;;5032900;28;20431;-40
2023/08/17 13:41:46;;;;;;;12.70;11.83;;;;;;;;;;5032875;28;20450;-41
2023/08/17 13:44:14;;;;;;;12.43;11.80;;;;;;;;;;5032266;28;20897;-43
2023/08/17 13:46:41;;;;;;;11.50;11.00;;;;;;;;;;5032477;28;21038;-42
2023/08/17 13:49:09;;;;;;;12.10;11.40;;;;;;;;;;5032595;28;21027;-41
2023/08/17 13:51:36;;;;;;;13.17;12.47;;;;;;;;;;5032678;28;20435;-40
2023/08/17 13:54:04;;;;;;;11.67;11.20;;;;;;;;;;5032190;28;20555;-40
2023/08/17 13:56:33;;;;;;;10.83;10.33;;;;;;;;;;5032545;28;20456;-42
2023/08/17 13:59:02;;;;;;;12.37;11.67;;;;;;;;;;5032607;28;20436;-40
2023/08/17 14:01:29;;;;;;;11.90;11.13;;;;;;;;;;5032148;28;20460;-42
2023/08/17 14:03:57;;;;;;;12.00;11.43;;;;;;;;;;5024975;28;20472;-41
2023/08/17 14:06:25;;;;;;;11.33;10.70;;;;;;;;;;5012357;28;20456;-42
2023/08/17 14:08:52;;;;;;;12.00;11.30;;;;;;;;;;5012558;28;20851;-44
2023/08/17 14:11:22;;;;;;;11.93;11.33;;;;;;;;;;5012672;28;20433;-41
2023/08/17 14:13:50;;;;;;;12.40;11.57;;;;;;;;;;5012238;28;20833;-40
2023/08/17 14:16:18;;;;;;;10.20;9.80;;;;;;;;;;5012456;28;20536;-44
2023/08/17 14:18:45;;;;;;;10.50;9.80;;;;;;;;;;5012665;28;20875;-40
2023/08/17 14:21:13;;;;;;;10.97;10.47;;;;;;;;;;5011413;28;20445;-41
2023/08/17 14:23:40;;;;;;;10.50;10.00;;;;;;;;;;5016040;28;20550;-40
2023/08/17 14:26:08;;;;;;;10.57;10.13;;;;;;;;;;5031499;28;20502;-40